sensor_id;sensor_type;location;lat;lon;timestamp;P1;durP1;ratioP1;P2;durP2;ratioP2
50880;SDS011;36858;47.832;-3.800;2023-04-03T06:17:42;3.27;;;1.80;;
50880;SDS011;36858;47.832;-3.800;2023-04-03T06:20:09;2.77;;;1.40;;
50880;SDS011;36858;47.832;-3.800;2023-04-03T06:22:37;6.33;;;2.40;;
50880;SDS011;36858;47.832;-3.800;2023-04-03T06:25:04;2.60;;;1.77;;
50880;SDS011;36858;47.832;-3.800;2023-04-03T06:27:32;2.20;;;2.00;;
50880;SDS011;36858;47.832;-3.800;2023-04-03T06:29:59;1.73;;;1.50;;
50880;SDS011;36858;47.832;-3.800;2023-04-03T06:32:26;4.93;;;1.57;;
50880;SDS011;36858;47.832;-3.800;2023-04-03T06:34:53;2.00;;;1.80;;
50880;SDS011;36858;47.832;-3.800;2023-04-03T06:37:21;3.33;;;1.47;;
50880;SDS011;36858;47.832;-3.800;2023-04-03T06:39:49;4.57;;;2.03;;
50880;SDS011;36858;47.832;-3.800;2023-04-03T06:42:16;3.23;;;1.70;;
50880;SDS011;36858;47.832;-3.800;2023-04-03T06:44:43;2.80;;;1.40;;
50880;SDS011;36858;47.832;-3.800;2023-04-03T06:47:13;3.87;;;2.00;;
50880;SDS011;36858;47.832;-3.800;2023-04-03T06:49:41;4.90;;;1.80;;
50880;SDS011;36858;47.832;-3.800;2023-04-03T06:52:09;6.20;;;1.67;;
50880;SDS011;36858;47.832;-3.800;2023-04-03T06:54:36;11.80;;;2.97;;
50880;SDS011;36858;47.832;-3.800;2023-04-03T06:57:03;6.83;;;2.43;;
50880;SDS011;36858;47.832;-3.800;2023-04-03T06:59:30;6.33;;;2.20;;
50880;SDS011;36858;47.832;-3.800;2023-04-03T07:01:57;5.23;;;2.10;;
50880;SDS011;36858;47.832;-3.800;2023-04-03T07:04:26;8.83;;;2.60;;
50880;SDS011;36858;47.832;-3.800;2023-04-03T07:06:53;8.97;;;2.40;;
50880;SDS011;36858;47.832;-3.800;2023-04-03T07:09:19;5.53;;;2.00;;
50880;SDS011;36858;47.832;-3.800;2023-04-03T07:11:47;8.00;;;2.50;;
50880;SDS011;36858;47.832;-3.800;2023-04-03T07:14:14;4.50;;;2.50;;
50880;SDS011;36858;47.832;-3.800;2023-04-03T07:16:40;5.10;;;2.53;;
50880;SDS011;36858;47.832;-3.800;2023-04-03T07:19:08;6.30;;;2.20;;
50880;SDS011;36858;47.832;-3.800;2023-04-03T07:21:35;5.03;;;1.90;;
50880;SDS011;36858;47.832;-3.800;2023-04-03T07:24:02;8.03;;;2.60;;
50880;SDS011;36858;47.832;-3.800;2023-04-03T07:26:29;10.03;;;2.50;;
50880;SDS011;36858;47.832;-3.800;2023-04-03T07:28:56;7.07;;;1.80;;
50880;SDS011;36858;47.832;-3.800;2023-04-03T07:31:24;5.30;;;2.33;;
50880;SDS011;36858;47.832;-3.800;2023-04-03T07:33:51;5.30;;;2.30;;
50880;SDS011;36858;47.832;-3.800;2023-04-03T07:36:19;8.23;;;2.03;;
50880;SDS011;36858;47.832;-3.800;2023-04-03T07:38:47;8.37;;;2.20;;
50880;SDS011;36858;47.832;-3.800;2023-04-03T07:41:15;9.80;;;2.43;;
50880;SDS011;36858;47.832;-3.800;2023-04-03T07:43:44;13.40;;;3.40;;
50880;SDS011;36858;47.832;-3.800;2023-04-03T07:46:11;19.87;;;4.00;;
50880;SDS011;36858;47.832;-3.800;2023-04-03T07:48:39;7.50;;;2.40;;
50880;SDS011;36858;47.832;-3.800;2023-04-03T07:51:06;5.73;;;2.07;;
50880;SDS011;36858;47.832;-3.800;2023-04-03T07:53:33;7.27;;;2.40;;
50880;SDS011;36858;47.832;-3.800;2023-04-03T07:56:00;6.13;;;2.30;;
50880;SDS011;36858;47.832;-3.800;2023-04-03T07:58:29;9.03;;;1.60;;
50880;SDS011;36858;47.832;-3.800;2023-04-03T08:00:56;9.20;;;2.13;;
50880;SDS011;36858;47.832;-3.800;2023-04-03T08:03:23;6.87;;;2.30;;
50880;SDS011;36858;47.832;-3.800;2023-04-03T08:05:51;7.67;;;2.20;;
50880;SDS011;36858;47.832;-3.800;2023-04-03T08:08:22;10.27;;;2.00;;
50880;SDS011;36858;47.832;-3.800;2023-04-03T08:10:50;5.53;;;2.43;;
50880;SDS011;36858;47.832;-3.800;2023-04-03T08:13:19;6.63;;;1.70;;
50880;SDS011;36858;47.832;-3.800;2023-04-03T08:15:48;4.17;;;1.53;;
50880;SDS011;36858;47.832;-3.800;2023-04-03T08:18:15;8.93;;;1.90;;
50880;SDS011;36858;47.832;-3.800;2023-04-03T08:20:43;6.90;;;1.93;;
50880;SDS011;36858;47.832;-3.800;2023-04-03T08:23:10;8.00;;;2.10;;
50880;SDS011;36858;47.832;-3.800;2023-04-03T08:25:38;5.67;;;1.57;;
50880;SDS011;36858;47.832;-3.800;2023-04-03T08:28:06;10.13;;;2.10;;
50880;SDS011;36858;47.832;-3.800;2023-04-03T08:30:34;5.10;;;2.27;;
50880;SDS011;36858;47.832;-3.800;2023-04-03T08:33:01;9.27;;;2.30;;
50880;SDS011;36858;47.832;-3.800;2023-04-03T08:35:29;9.83;;;2.97;;
50880;SDS011;36858;47.832;-3.800;2023-04-03T08:37:56;7.77;;;2.50;;
50880;SDS011;36858;47.832;-3.800;2023-04-03T08:40:23;7.70;;;2.80;;
50880;SDS011;36858;47.832;-3.800;2023-04-03T08:48:15;16.60;;;4.77;;
50880;SDS011;36858;47.832;-3.800;2023-04-03T08:50:45;8.70;;;2.50;;
50880;SDS011;36858;47.832;-3.800;2023-04-03T08:53:16;7.43;;;1.57;;
50880;SDS011;36858;47.832;-3.800;2023-04-03T08:55:46;7.50;;;1.70;;
50880;SDS011;36858;47.832;-3.800;2023-04-03T08:58:16;5.40;;;1.70;;
50880;SDS011;36858;47.832;-3.800;2023-04-03T09:00:48;7.40;;;1.70;;
50880;SDS011;36858;47.832;-3.800;2023-04-03T09:03:18;4.80;;;1.80;;
50880;SDS011;36858;47.832;-3.800;2023-04-03T09:05:51;5.00;;;1.77;;
50880;SDS011;36858;47.832;-3.800;2023-04-03T09:10:55;5.40;;;2.10;;
50880;SDS011;36858;47.832;-3.800;2023-04-03T09:13:53;6.93;;;2.13;;
50880;SDS011;36858;47.832;-3.800;2023-04-03T09:22:11;5.43;;;1.73;;
50880;SDS011;36858;47.832;-3.800;2023-04-03T09:24:44;7.07;;;1.80;;
50880;SDS011;36858;47.832;-3.800;2023-04-03T09:27:12;5.83;;;1.60;;
50880;SDS011;36858;47.832;-3.800;2023-04-03T09:29:39;4.67;;;1.70;;
50880;SDS011;36858;47.832;-3.800;2023-04-03T09:35:04;4.40;;;1.40;;
50880;SDS011;36858;47.832;-3.800;2023-04-03T09:38:13;6.80;;;1.97;;
50880;SDS011;36858;47.832;-3.800;2023-04-03T09:40:45;6.00;;;1.70;;
50880;SDS011;36858;47.832;-3.800;2023-04-03T09:43:28;5.57;;;1.70;;
50880;SDS011;36858;47.832;-3.800;2023-04-03T09:46:15;4.33;;;2.27;;
50880;SDS011;36858;47.832;-3.800;2023-04-03T09:49:03;4.93;;;1.57;;
50880;SDS011;36858;47.832;-3.800;2023-04-03T09:51:35;5.03;;;1.77;;
50880;SDS011;36858;47.832;-3.800;2023-04-03T09:54:23;3.67;;;1.23;;
50880;SDS011;36858;47.832;-3.800;2023-04-03T09:57:22;5.23;;;1.50;;
50880;SDS011;36858;47.832;-3.800;2023-04-03T09:59:58;6.73;;;1.50;;
50880;SDS011;36858;47.832;-3.800;2023-04-03T10:05:03;9.77;;;1.70;;
50880;SDS011;36858;47.832;-3.800;2023-04-03T10:07:36;8.03;;;1.37;;
50880;SDS011;36858;47.832;-3.800;2023-04-03T10:13:00;3.53;;;1.50;;
50880;SDS011;36858;47.832;-3.800;2023-04-03T10:15:30;3.43;;;1.60;;
50880;SDS011;36858;47.832;-3.800;2023-04-03T10:18:05;4.03;;;1.63;;
50880;SDS011;36858;47.832;-3.800;2023-04-03T10:20:50;6.87;;;1.87;;
50880;SDS011;36858;47.832;-3.800;2023-04-03T10:23:27;3.70;;;1.63;;
50880;SDS011;36858;47.832;-3.800;2023-04-03T10:28:56;5.27;;;1.63;;
50880;SDS011;36858;47.832;-3.800;2023-04-03T10:42:02;4.90;;;1.40;;
50880;SDS011;36858;47.832;-3.800;2023-04-03T10:47:20;3.40;;;1.47;;
50880;SDS011;36858;47.832;-3.800;2023-04-03T10:53:04;6.80;;;1.77;;
50880;SDS011;36858;47.832;-3.800;2023-04-03T10:55:47;9.10;;;2.93;;
50880;SDS011;36858;47.832;-3.800;2023-04-03T10:58:24;5.60;;;1.83;;
50880;SDS011;36858;47.832;-3.800;2023-04-03T11:00:56;5.07;;;1.80;;
50880;SDS011;36858;47.832;-3.800;2023-04-03T11:05:57;5.17;;;1.93;;
50880;SDS011;36858;47.832;-3.800;2023-04-03T11:08:33;4.80;;;2.00;;
50880;SDS011;36858;47.832;-3.800;2023-04-03T11:11:19;11.67;;;2.33;;
50880;SDS011;36858;47.832;-3.800;2023-04-03T11:16:20;6.07;;;1.63;;
50880;SDS011;36858;47.832;-3.800;2023-04-03T11:19:03;4.07;;;1.50;;
50880;SDS011;36858;47.832;-3.800;2023-04-03T11:21:42;4.43;;;1.57;;
50880;SDS011;36858;47.832;-3.800;2023-04-03T11:24:16;4.20;;;1.40;;
50880;SDS011;36858;47.832;-3.800;2023-04-03T11:26:54;4.00;;;1.40;;
50880;SDS011;36858;47.832;-3.800;2023-04-03T11:29:23;4.67;;;1.40;;
50880;SDS011;36858;47.832;-3.800;2023-04-03T11:34:53;5.93;;;1.50;;
50880;SDS011;36858;47.832;-3.800;2023-04-03T11:40:24;4.53;;;1.53;;
50880;SDS011;36858;47.832;-3.800;2023-04-03T11:46:04;4.90;;;1.80;;
50880;SDS011;36858;47.832;-3.800;2023-04-03T11:51:37;4.87;;;1.50;;
50880;SDS011;36858;47.832;-3.800;2023-04-03T11:53:54;5.97;;;1.63;;
50880;SDS011;36858;47.832;-3.800;2023-04-03T11:57:22;9.17;;;1.80;;
50880;SDS011;36858;47.832;-3.800;2023-04-03T12:16:20;5.57;;;2.00;;
50880;SDS011;36858;47.832;-3.800;2023-04-03T12:21:15;8.37;;;1.40;;
50880;SDS011;36858;47.832;-3.800;2023-04-03T12:26:25;5.83;;;2.50;;
50880;SDS011;36858;47.832;-3.800;2023-04-03T12:29:21;3.23;;;1.83;;
50880;SDS011;36858;47.832;-3.800;2023-04-03T12:46:14;8.53;;;2.27;;
50880;SDS011;36858;47.832;-3.800;2023-04-03T12:51:18;4.10;;;1.47;;
50880;SDS011;36858;47.832;-3.800;2023-04-03T12:53:56;5.27;;;1.37;;
50880;SDS011;36858;47.832;-3.800;2023-04-03T12:56:30;4.47;;;1.77;;
50880;SDS011;36858;47.832;-3.800;2023-04-03T12:59:15;3.97;;;1.80;;
50880;SDS011;36858;47.832;-3.800;2023-04-03T13:01:53;5.77;;;1.67;;
50880;SDS011;36858;47.832;-3.800;2023-04-03T13:04:24;5.57;;;1.87;;
50880;SDS011;36858;47.832;-3.800;2023-04-03T13:06:51;4.53;;;1.77;;
50880;SDS011;36858;47.832;-3.800;2023-04-03T13:09:23;8.27;;;1.90;;
50880;SDS011;36858;47.832;-3.800;2023-04-03T13:14:25;6.03;;;1.93;;
50880;SDS011;36858;47.832;-3.800;2023-04-03T13:16:58;3.80;;;1.80;;
50880;SDS011;36858;47.832;-3.800;2023-04-03T13:19:27;8.60;;;2.40;;
50880;SDS011;36858;47.832;-3.800;2023-04-03T13:22:05;8.60;;;2.00;;
50880;SDS011;36858;47.832;-3.800;2023-04-03T13:24:34;7.13;;;1.87;;
50880;SDS011;36858;47.832;-3.800;2023-04-03T13:27:02;6.53;;;2.00;;
50880;SDS011;36858;47.832;-3.800;2023-04-03T13:29:32;6.80;;;2.17;;
50880;SDS011;36858;47.832;-3.800;2023-04-03T13:32:01;7.80;;;2.13;;
50880;SDS011;36858;47.832;-3.800;2023-04-03T13:34:40;10.13;;;2.33;;
50880;SDS011;36858;47.832;-3.800;2023-04-03T13:37:29;4.57;;;1.80;;
50880;SDS011;36858;47.832;-3.800;2023-04-03T13:42:37;10.40;;;1.80;;
50880;SDS011;36858;47.832;-3.800;2023-04-03T13:45:11;7.37;;;2.47;;
50880;SDS011;36858;47.832;-3.800;2023-04-03T13:47:43;5.30;;;1.30;;
50880;SDS011;36858;47.832;-3.800;2023-04-03T13:52:48;4.97;;;2.00;;
50880;SDS011;36858;47.832;-3.800;2023-04-03T13:57:53;3.40;;;1.80;;
50880;SDS011;36858;47.832;-3.800;2023-04-03T14:00:51;4.70;;;1.73;;
50880;SDS011;36858;47.832;-3.800;2023-04-03T14:03:30;3.63;;;1.87;;
50880;SDS011;36858;47.832;-3.800;2023-04-03T14:05:59;3.57;;;1.90;;
50880;SDS011;36858;47.832;-3.800;2023-04-03T14:08:27;4.80;;;1.93;;
50880;SDS011;36858;47.832;-3.800;2023-04-03T14:11:15;5.40;;;2.60;;
50880;SDS011;36858;47.832;-3.800;2023-04-03T14:13:45;6.47;;;2.37;;
50880;SDS011;36858;47.832;-3.800;2023-04-03T14:16:13;5.13;;;2.00;;
50880;SDS011;36858;47.832;-3.800;2023-04-03T14:18:43;6.07;;;2.30;;
50880;SDS011;36858;47.832;-3.800;2023-04-03T14:21:12;5.57;;;2.27;;
50880;SDS011;36858;47.832;-3.800;2023-04-03T14:23:41;7.07;;;2.30;;
50880;SDS011;36858;47.832;-3.800;2023-04-03T14:26:12;4.90;;;2.00;;
50880;SDS011;36858;47.832;-3.800;2023-04-03T14:28:48;4.53;;;2.50;;
50880;SDS011;36858;47.832;-3.800;2023-04-03T14:31:17;3.80;;;2.37;;
50880;SDS011;36858;47.832;-3.800;2023-04-03T14:33:45;7.90;;;2.63;;
50880;SDS011;36858;47.832;-3.800;2023-04-03T14:36:19;6.40;;;2.40;;
50880;SDS011;36858;47.832;-3.800;2023-04-03T14:38:48;5.57;;;1.93;;
50880;SDS011;36858;47.832;-3.800;2023-04-03T14:41:18;7.20;;;2.80;;
50880;SDS011;36858;47.832;-3.800;2023-04-03T14:43:47;7.13;;;2.20;;
50880;SDS011;36858;47.832;-3.800;2023-04-03T14:46:16;7.40;;;2.57;;
50880;SDS011;36858;47.832;-3.800;2023-04-03T14:48:45;6.43;;;2.77;;
50880;SDS011;36858;47.832;-3.800;2023-04-03T14:51:13;8.13;;;2.40;;
50880;SDS011;36858;47.832;-3.800;2023-04-03T14:53:41;5.53;;;2.20;;
50880;SDS011;36858;47.832;-3.800;2023-04-03T14:56:17;6.27;;;2.40;;
50880;SDS011;36858;47.832;-3.800;2023-04-03T14:58:44;5.13;;;2.47;;
50880;SDS011;36858;47.832;-3.800;2023-04-03T15:01:16;5.83;;;2.43;;
50880;SDS011;36858;47.832;-3.800;2023-04-03T15:03:44;5.70;;;2.73;;
50880;SDS011;36858;47.832;-3.800;2023-04-03T15:06:12;5.73;;;2.00;;
50880;SDS011;36858;47.832;-3.800;2023-04-03T15:08:39;7.07;;;3.97;;
50880;SDS011;36858;47.832;-3.800;2023-04-03T15:11:08;5.67;;;2.40;;
50880;SDS011;36858;47.832;-3.800;2023-04-03T15:13:37;7.13;;;2.40;;
50880;SDS011;36858;47.832;-3.800;2023-04-03T15:16:12;6.20;;;2.60;;
50880;SDS011;36858;47.832;-3.800;2023-04-03T15:18:45;5.87;;;2.70;;
50880;SDS011;36858;47.832;-3.800;2023-04-03T15:21:13;5.53;;;2.50;;
50880;SDS011;36858;47.832;-3.800;2023-04-03T15:23:40;3.67;;;2.10;;
50880;SDS011;36858;47.832;-3.800;2023-04-03T15:26:08;4.00;;;2.47;;
50880;SDS011;36858;47.832;-3.800;2023-04-03T15:28:37;3.30;;;2.30;;
50880;SDS011;36858;47.832;-3.800;2023-04-03T15:31:06;5.50;;;2.87;;
50880;SDS011;36858;47.832;-3.800;2023-04-03T15:33:33;3.70;;;2.50;;
50880;SDS011;36858;47.832;-3.800;2023-04-03T15:36:00;4.07;;;2.70;;
50880;SDS011;36858;47.832;-3.800;2023-04-03T15:38:33;6.77;;;2.40;;
50880;SDS011;36858;47.832;-3.800;2023-04-03T15:41:00;5.33;;;2.57;;
50880;SDS011;36858;47.832;-3.800;2023-04-03T15:43:27;4.53;;;2.33;;
50880;SDS011;36858;47.832;-3.800;2023-04-03T15:45:55;5.23;;;2.87;;
50880;SDS011;36858;47.832;-3.800;2023-04-03T15:48:23;4.27;;;2.70;;
50880;SDS011;36858;47.832;-3.800;2023-04-03T15:50:51;2.33;;;2.13;;
50880;SDS011;36858;47.832;-3.800;2023-04-03T15:53:18;5.47;;;3.00;;
50880;SDS011;36858;47.832;-3.800;2023-04-03T15:55:45;7.50;;;2.87;;
50880;SDS011;36858;47.832;-3.800;2023-04-03T15:58:12;5.33;;;2.47;;
50880;SDS011;36858;47.832;-3.800;2023-04-03T16:00:39;3.43;;;2.37;;
50880;SDS011;36858;47.832;-3.800;2023-04-03T16:03:10;4.43;;;2.67;;
50880;SDS011;36858;47.832;-3.800;2023-04-03T16:05:38;5.27;;;2.57;;
50880;SDS011;36858;47.832;-3.800;2023-04-03T16:08:06;4.43;;;2.60;;
50880;SDS011;36858;47.832;-3.800;2023-04-03T16:10:35;5.80;;;2.37;;
50880;SDS011;36858;47.832;-3.800;2023-04-03T16:13:03;3.30;;;2.57;;
50880;SDS011;36858;47.832;-3.800;2023-04-03T16:15:30;4.70;;;2.70;;
50880;SDS011;36858;47.832;-3.800;2023-04-03T16:17:58;3.83;;;2.93;;
50880;SDS011;36858;47.832;-3.800;2023-04-03T16:20:26;6.93;;;3.10;;
50880;SDS011;36858;47.832;-3.800;2023-04-03T16:22:53;5.83;;;3.10;;
50880;SDS011;36858;47.832;-3.800;2023-04-03T16:25:22;5.63;;;3.20;;
50880;SDS011;36858;47.832;-3.800;2023-04-03T16:27:49;3.83;;;2.83;;
50880;SDS011;36858;47.832;-3.800;2023-04-03T16:30:16;3.80;;;3.20;;
50880;SDS011;36858;47.832;-3.800;2023-04-03T16:32:43;4.10;;;3.23;;
50880;SDS011;36858;47.832;-3.800;2023-04-03T16:35:10;4.57;;;3.17;;
50880;SDS011;36858;47.832;-3.800;2023-04-03T16:37:38;3.83;;;2.83;;
50880;SDS011;36858;47.832;-3.800;2023-04-03T16:40:06;5.83;;;2.97;;
50880;SDS011;36858;47.832;-3.800;2023-04-03T16:42:34;3.70;;;2.70;;
50880;SDS011;36858;47.832;-3.800;2023-04-03T16:45:03;4.00;;;3.03;;
50880;SDS011;36858;47.832;-3.800;2023-04-03T16:47:32;4.63;;;3.20;;
50880;SDS011;36858;47.832;-3.800;2023-04-03T16:49:59;6.10;;;3.40;;
50880;SDS011;36858;47.832;-3.800;2023-04-03T16:52:26;5.30;;;3.47;;
50880;SDS011;36858;47.832;-3.800;2023-04-03T16:54:53;5.23;;;3.50;;
50880;SDS011;36858;47.832;-3.800;2023-04-03T16:57:22;5.33;;;3.07;;
50880;SDS011;36858;47.832;-3.800;2023-04-03T16:59:51;5.80;;;3.37;;
50880;SDS011;36858;47.832;-3.800;2023-04-03T17:02:19;6.80;;;3.03;;
50880;SDS011;36858;47.832;-3.800;2023-04-03T17:04:46;5.20;;;3.60;;
50880;SDS011;36858;47.832;-3.800;2023-04-03T17:07:17;5.13;;;3.60;;
50880;SDS011;36858;47.832;-3.800;2023-04-03T17:09:45;5.67;;;3.30;;
50880;SDS011;36858;47.832;-3.800;2023-04-03T17:12:12;5.53;;;3.80;;
50880;SDS011;36858;47.832;-3.800;2023-04-03T17:14:39;4.10;;;3.13;;
50880;SDS011;36858;47.832;-3.800;2023-04-03T17:17:06;6.47;;;3.50;;
50880;SDS011;36858;47.832;-3.800;2023-04-03T17:19:35;4.53;;;3.30;;
50880;SDS011;36858;47.832;-3.800;2023-04-03T17:22:02;5.33;;;3.27;;
50880;SDS011;36858;47.832;-3.800;2023-04-03T17:24:29;5.03;;;3.33;;
50880;SDS011;36858;47.832;-3.800;2023-04-03T17:26:56;5.27;;;3.53;;
50880;SDS011;36858;47.832;-3.800;2023-04-03T17:29:23;6.70;;;3.17;;
50880;SDS011;36858;47.832;-3.800;2023-04-03T17:31:49;5.63;;;3.87;;
50880;SDS011;36858;47.832;-3.800;2023-04-03T17:34:16;5.27;;;3.27;;
50880;SDS011;36858;47.832;-3.800;2023-04-03T17:36:44;5.07;;;3.50;;
50880;SDS011;36858;47.832;-3.800;2023-04-03T17:39:11;3.83;;;3.00;;
50880;SDS011;36858;47.832;-3.800;2023-04-03T17:41:38;4.10;;;3.50;;
50880;SDS011;36858;47.832;-3.800;2023-04-03T17:44:05;4.63;;;3.73;;
50880;SDS011;36858;47.832;-3.800;2023-04-03T17:46:32;5.20;;;3.53;;
50880;SDS011;36858;47.832;-3.800;2023-04-03T17:49:00;6.67;;;3.73;;
50880;SDS011;36858;47.832;-3.800;2023-04-03T17:51:28;4.23;;;3.00;;
50880;SDS011;36858;47.832;-3.800;2023-04-03T17:53:56;5.17;;;3.80;;
50880;SDS011;36858;47.832;-3.800;2023-04-03T17:56:23;5.57;;;3.10;;
50880;SDS011;36858;47.832;-3.800;2023-04-03T17:58:53;4.83;;;3.27;;
50880;SDS011;36858;47.832;-3.800;2023-04-03T18:01:32;4.73;;;3.33;;
50880;SDS011;36858;47.832;-3.800;2023-04-03T18:04:01;4.03;;;3.60;;
50880;SDS011;36858;47.832;-3.800;2023-04-03T18:06:36;7.10;;;4.30;;
50880;SDS011;36858;47.832;-3.800;2023-04-03T18:09:31;4.97;;;3.80;;
50880;SDS011;36858;47.832;-3.800;2023-04-03T18:12:03;5.73;;;3.83;;
50880;SDS011;36858;47.832;-3.800;2023-04-03T18:14:31;4.63;;;3.50;;
50880;SDS011;36858;47.832;-3.800;2023-04-03T18:16:59;4.77;;;3.80;;
50880;SDS011;36858;47.832;-3.800;2023-04-03T18:19:26;5.53;;;4.20;;
50880;SDS011;36858;47.832;-3.800;2023-04-03T18:21:55;5.87;;;3.80;;
50880;SDS011;36858;47.832;-3.800;2023-04-03T18:24:24;5.90;;;4.23;;
50880;SDS011;36858;47.832;-3.800;2023-04-03T18:26:53;7.77;;;4.10;;
50880;SDS011;36858;47.832;-3.800;2023-04-03T18:29:24;5.53;;;4.90;;
50880;SDS011;36858;47.832;-3.800;2023-04-03T18:31:52;7.63;;;4.73;;
50880;SDS011;36858;47.832;-3.800;2023-04-03T18:34:19;5.10;;;4.43;;
50880;SDS011;36858;47.832;-3.800;2023-04-03T18:36:46;5.83;;;4.50;;
50880;SDS011;36858;47.832;-3.800;2023-04-03T18:39:14;5.37;;;3.67;;
50880;SDS011;36858;47.832;-3.800;2023-04-03T18:41:41;4.47;;;3.87;;
50880;SDS011;36858;47.832;-3.800;2023-04-03T18:44:09;6.40;;;4.20;;
50880;SDS011;36858;47.832;-3.800;2023-04-03T18:46:38;5.93;;;4.30;;
50880;SDS011;36858;47.832;-3.800;2023-04-03T18:49:06;4.70;;;4.17;;
50880;SDS011;36858;47.832;-3.800;2023-04-03T18:51:34;6.00;;;4.00;;
50880;SDS011;36858;47.832;-3.800;2023-04-03T18:54:01;4.90;;;4.40;;
50880;SDS011;36858;47.832;-3.800;2023-04-03T18:56:30;5.43;;;4.50;;
50880;SDS011;36858;47.832;-3.800;2023-04-03T18:58:57;7.13;;;4.47;;
50880;SDS011;36858;47.832;-3.800;2023-04-03T19:01:24;5.30;;;4.27;;
50880;SDS011;36858;47.832;-3.800;2023-04-03T19:03:51;7.63;;;4.80;;
50880;SDS011;36858;47.832;-3.800;2023-04-03T19:06:18;5.83;;;4.40;;
50880;SDS011;36858;47.832;-3.800;2023-04-03T19:08:45;7.70;;;4.70;;
50880;SDS011;36858;47.832;-3.800;2023-04-03T19:11:12;7.07;;;4.40;;
50880;SDS011;36858;47.832;-3.800;2023-04-03T19:13:39;5.87;;;4.70;;
50880;SDS011;36858;47.832;-3.800;2023-04-03T19:16:22;5.53;;;4.33;;
50880;SDS011;36858;47.832;-3.800;2023-04-03T19:18:49;5.53;;;4.30;;
50880;SDS011;36858;47.832;-3.800;2023-04-03T19:21:17;5.63;;;3.73;;
50880;SDS011;36858;47.832;-3.800;2023-04-03T19:23:44;4.83;;;3.73;;
50880;SDS011;36858;47.832;-3.800;2023-04-03T19:26:11;6.50;;;4.40;;
50880;SDS011;36858;47.832;-3.800;2023-04-03T19:28:39;4.00;;;3.60;;
50880;SDS011;36858;47.832;-3.800;2023-04-03T19:31:14;6.20;;;4.50;;
50880;SDS011;36858;47.832;-3.800;2023-04-03T19:33:42;6.80;;;4.53;;
50880;SDS011;36858;47.832;-3.800;2023-04-03T19:36:09;4.23;;;3.50;;
50880;SDS011;36858;47.832;-3.800;2023-04-03T19:38:37;5.73;;;3.60;;
50880;SDS011;36858;47.832;-3.800;2023-04-03T19:41:04;6.20;;;4.30;;
50880;SDS011;36858;47.832;-3.800;2023-04-03T19:43:32;4.13;;;3.50;;
50880;SDS011;36858;47.832;-3.800;2023-04-03T19:46:00;4.27;;;3.80;;
50880;SDS011;36858;47.832;-3.800;2023-04-03T19:48:27;4.70;;;4.20;;
50880;SDS011;36858;47.832;-3.800;2023-04-03T19:50:54;6.23;;;3.93;;
50880;SDS011;36858;47.832;-3.800;2023-04-03T19:53:21;5.37;;;3.90;;
50880;SDS011;36858;47.832;-3.800;2023-04-03T19:55:54;4.77;;;3.70;;
50880;SDS011;36858;47.832;-3.800;2023-04-03T20:19:55;5.07;;;3.57;;
50880;SDS011;36858;47.832;-3.800;2023-04-03T20:22:27;6.07;;;3.50;;
50880;SDS011;36858;47.832;-3.800;2023-04-03T20:24:54;5.57;;;4.00;;
50880;SDS011;36858;47.832;-3.800;2023-04-03T20:27:31;5.03;;;3.80;;
50880;SDS011;36858;47.832;-3.800;2023-04-03T20:29:58;4.70;;;3.87;;
50880;SDS011;36858;47.832;-3.800;2023-04-03T20:32:28;6.07;;;4.13;;
50880;SDS011;36858;47.832;-3.800;2023-04-03T20:34:55;4.20;;;3.70;;
50880;SDS011;36858;47.832;-3.800;2023-04-03T20:37:30;5.70;;;4.30;;
50880;SDS011;36858;47.832;-3.800;2023-04-03T20:39:57;6.10;;;5.17;;
50880;SDS011;36858;47.832;-3.800;2023-04-03T20:42:24;4.37;;;3.90;;
50880;SDS011;36858;47.832;-3.800;2023-04-03T20:44:51;5.70;;;3.97;;
50880;SDS011;36858;47.832;-3.800;2023-04-03T20:47:18;5.17;;;3.80;;
50880;SDS011;36858;47.832;-3.800;2023-04-03T20:49:45;5.27;;;4.53;;
50880;SDS011;36858;47.832;-3.800;2023-04-03T20:52:12;8.17;;;3.93;;
50880;SDS011;36858;47.832;-3.800;2023-04-03T20:54:39;4.30;;;3.90;;
50880;SDS011;36858;47.832;-3.800;2023-04-03T20:57:06;10.10;;;4.37;;
50880;SDS011;36858;47.832;-3.800;2023-04-03T20:59:33;7.43;;;4.30;;
50880;SDS011;36858;47.832;-3.800;2023-04-03T21:02:01;4.70;;;3.63;;
50880;SDS011;36858;47.832;-3.800;2023-04-03T21:05:10;4.20;;;3.47;;
50880;SDS011;36858;47.832;-3.800;2023-04-03T21:19:13;3.57;;;3.13;;
50880;SDS011;36858;47.832;-3.800;2023-04-03T21:21:46;6.80;;;3.97;;
50880;SDS011;36858;47.832;-3.800;2023-04-03T21:24:13;8.30;;;4.20;;
50880;SDS011;36858;47.832;-3.800;2023-04-03T21:26:42;4.70;;;4.30;;
50880;SDS011;36858;47.832;-3.800;2023-04-03T21:29:10;6.97;;;4.37;;
50880;SDS011;36858;47.832;-3.800;2023-04-03T21:34:25;7.33;;;5.20;;
50880;SDS011;36858;47.832;-3.800;2023-04-03T21:36:53;5.87;;;5.00;;
50880;SDS011;36858;47.832;-3.800;2023-04-03T21:39:22;5.20;;;4.47;;
50880;SDS011;36858;47.832;-3.800;2023-04-03T21:41:49;7.10;;;6.07;;
50880;SDS011;36858;47.832;-3.800;2023-04-03T21:44:19;7.80;;;5.87;;
50880;SDS011;36858;47.832;-3.800;2023-04-03T21:46:46;6.67;;;5.13;;
50880;SDS011;36858;47.832;-3.800;2023-04-03T21:49:14;8.37;;;5.50;;
50880;SDS011;36858;47.832;-3.800;2023-04-03T21:51:41;7.10;;;5.30;;
50880;SDS011;36858;47.832;-3.800;2023-04-03T21:54:08;6.50;;;5.80;;
50880;SDS011;36858;47.832;-3.800;2023-04-03T21:56:35;5.90;;;5.30;;
50880;SDS011;36858;47.832;-3.800;2023-04-03T21:59:02;7.90;;;5.93;;
50880;SDS011;36858;47.832;-3.800;2023-04-03T22:01:29;8.93;;;6.00;;
50880;SDS011;36858;47.832;-3.800;2023-04-03T22:03:57;6.93;;;6.20;;
50880;SDS011;36858;47.832;-3.800;2023-04-03T22:06:25;10.03;;;6.13;;
50880;SDS011;36858;47.832;-3.800;2023-04-03T22:08:52;7.67;;;6.30;;
50880;SDS011;36858;47.832;-3.800;2023-04-03T22:11:19;6.20;;;5.40;;
50880;SDS011;36858;47.832;-3.800;2023-04-03T22:13:49;7.63;;;5.90;;
50880;SDS011;36858;47.832;-3.800;2023-04-03T22:16:17;9.50;;;6.77;;
50880;SDS011;36858;47.832;-3.800;2023-04-03T22:18:45;9.23;;;6.53;;
50880;SDS011;36858;47.832;-3.800;2023-04-03T22:21:12;7.27;;;6.00;;
50880;SDS011;36858;47.832;-3.800;2023-04-03T22:23:39;6.93;;;6.23;;
50880;SDS011;36858;47.832;-3.800;2023-04-03T22:26:06;7.30;;;6.00;;
50880;SDS011;36858;47.832;-3.800;2023-04-03T22:28:38;8.63;;;6.30;;
50880;SDS011;36858;47.832;-3.800;2023-04-03T22:31:06;8.23;;;6.27;;
50880;SDS011;36858;47.832;-3.800;2023-04-03T22:33:34;9.30;;;6.67;;
50880;SDS011;36858;47.832;-3.800;2023-04-03T22:36:04;8.50;;;7.40;;
50880;SDS011;36858;47.832;-3.800;2023-04-03T22:38:32;7.60;;;6.80;;
50880;SDS011;36858;47.832;-3.800;2023-04-03T22:41:01;8.77;;;6.53;;
50880;SDS011;36858;47.832;-3.800;2023-04-03T22:43:30;7.53;;;6.63;;
50880;SDS011;36858;47.832;-3.800;2023-04-03T22:45:59;8.47;;;6.30;;
50880;SDS011;36858;47.832;-3.800;2023-04-03T22:48:26;7.43;;;6.07;;
50880;SDS011;36858;47.832;-3.800;2023-04-03T22:50:53;8.13;;;6.37;;
50880;SDS011;36858;47.832;-3.800;2023-04-03T22:53:25;7.67;;;6.80;;
50880;SDS011;36858;47.832;-3.800;2023-04-03T22:55:53;11.80;;;7.97;;
50880;SDS011;36858;47.832;-3.800;2023-04-03T22:58:24;11.00;;;6.70;;
50880;SDS011;36858;47.832;-3.800;2023-04-03T23:00:55;7.47;;;6.43;;
50880;SDS011;36858;47.832;-3.800;2023-04-03T23:03:37;10.23;;;8.00;;
50880;SDS011;36858;47.832;-3.800;2023-04-03T23:06:05;7.83;;;7.03;;
50880;SDS011;36858;47.832;-3.800;2023-04-03T23:08:33;9.30;;;7.37;;
50880;SDS011;36858;47.832;-3.800;2023-04-03T23:11:00;8.40;;;6.60;;
50880;SDS011;36858;47.832;-3.800;2023-04-03T23:13:28;13.83;;;7.20;;
50880;SDS011;36858;47.832;-3.800;2023-04-03T23:15:55;7.83;;;6.43;;
50880;SDS011;36858;47.832;-3.800;2023-04-03T23:18:23;9.63;;;7.27;;
50880;SDS011;36858;47.832;-3.800;2023-04-03T23:20:50;8.13;;;6.23;;
50880;SDS011;36858;47.832;-3.800;2023-04-03T23:23:20;7.83;;;6.90;;
50880;SDS011;36858;47.832;-3.800;2023-04-03T23:25:57;9.27;;;6.57;;
50880;SDS011;36858;47.832;-3.800;2023-04-03T23:28:25;7.60;;;6.40;;
50880;SDS011;36858;47.832;-3.800;2023-04-03T23:31:00;11.27;;;7.47;;